createdAt,value
2023-06-10T00:00:08.588Z,97784.22
2023-06-10T00:02:44.340Z,97786.53
2023-06-10T00:05:12.546Z,97795.78
2023-06-10T00:07:42.046Z,97783.41
2023-06-10T00:10:09.422Z,97784.41
2023-06-10T00:12:38.985Z,97782.72
2023-06-10T00:15:08.253Z,97777.44
2023-06-10T00:17:39.911Z,97774.78
2023-06-10T00:20:24.416Z,97776.88
2023-06-10T00:22:52.343Z,97775.22
2023-06-10T00:25:19.899Z,97770.81
2023-06-10T00:27:47.347Z,97763.66
2023-06-10T00:30:15.283Z,97754.78
2023-06-10T00:32:42.886Z,97755.63
2023-06-10T00:35:11.032Z,97741.59
2023-06-10T00:37:39.178Z,97744.75
2023-06-10T00:42:48.232Z,97735.72
2023-06-10T00:45:16.329Z,97723.63
2023-06-10T00:47:46.746Z,97733.00
2023-06-10T00:50:19.049Z,97734.16
2023-06-10T00:52:49.307Z,97728.22
2023-06-10T00:55:17.772Z,97734.44
2023-06-10T00:57:49.607Z,97750.69
2023-06-10T01:00:17.980Z,97760.34
2023-06-10T01:02:46.637Z,97767.56
2023-06-10T01:05:14.993Z,97755.34
2023-06-10T01:07:57.076Z,97750.53
2023-06-10T01:10:32.839Z,97753.00
2023-06-10T01:13:03.714Z,97746.41
2023-06-10T01:15:35.810Z,97734.47
2023-06-10T01:18:16.143Z,97732.34
2023-06-10T01:20:44.897Z,97733.50
2023-06-10T01:23:12.747Z,97726.53
2023-06-10T01:25:45.085Z,97732.53
2023-06-10T01:28:32.533Z,97738.06
2023-06-10T01:31:35.389Z,97748.09
2023-06-10T01:34:03.313Z,97750.34
2023-06-10T01:36:30.748Z,97748.13
2023-06-10T01:38:58.448Z,97752.44
2023-06-10T01:41:26.799Z,97743.78
2023-06-10T01:43:55.440Z,97746.91
2023-06-10T01:46:23.559Z,97735.91
2023-06-10T01:48:51.308Z,97736.28
2023-06-10T01:51:19.055Z,97744.31
2023-06-10T01:53:46.441Z,97737.94
2023-06-10T01:56:20.590Z,97737.94
2023-06-10T01:58:48.302Z,97724.22
2023-06-10T02:01:16.254Z,97728.72
2023-06-10T02:03:44.414Z,97718.78
2023-06-10T02:06:12.415Z,97722.13
2023-06-10T02:08:40.282Z,97728.09
2023-06-10T02:11:08.581Z,97724.09
2023-06-10T02:13:36.795Z,97721.63
2023-06-10T02:16:04.493Z,97724.19
2023-06-10T02:18:32.745Z,97703.63
2023-06-10T02:21:04.395Z,97715.41
2023-06-10T02:23:31.759Z,97704.78
2023-06-10T02:25:59.103Z,97703.19
2023-06-10T02:28:26.903Z,97705.78
2023-06-10T02:30:54.672Z,97707.09
2023-06-10T02:33:23.215Z,97700.84
2023-06-10T02:35:51.636Z,97684.22
2023-06-10T02:38:21.198Z,97683.66
2023-06-10T02:40:49.945Z,97693.34
2023-06-10T02:43:18.167Z,97690.69
2023-06-10T02:45:47.544Z,97682.06
2023-06-10T02:48:16.964Z,97677.13
2023-06-10T02:50:44.720Z,97673.25
2023-06-10T02:53:28.921Z,97672.59
2023-06-10T02:56:04.876Z,97664.78
2023-06-10T02:58:33.273Z,97674.78
2023-06-10T03:01:02.192Z,97653.88
2023-06-10T03:03:37.838Z,97651.31
2023-06-10T03:06:11.610Z,97651.25
2023-06-10T03:08:40.066Z,97648.00
2023-06-10T03:11:11.994Z,97639.22
2023-06-10T03:13:43.161Z,97650.16
2023-06-10T03:16:14.183Z,97641.47
2023-06-10T03:18:44.780Z,97648.72
2023-06-10T03:21:12.624Z,97650.53
2023-06-10T03:23:41.441Z,97643.66
2023-06-10T03:26:11.900Z,97621.16
2023-06-10T03:28:43.556Z,97621.69
2023-06-10T03:31:17.620Z,97620.13
2023-06-10T03:33:49.831Z,97614.59
2023-06-10T03:36:20.720Z,97610.47
2023-06-10T03:38:52.611Z,97609.41
2023-06-10T03:41:25.676Z,97602.16
2023-06-10T03:43:55.786Z,97597.03
2023-06-10T03:49:44.474Z,97597.22
2023-06-10T03:52:14.621Z,97608.19
2023-06-10T03:54:51.024Z,97605.09
2023-06-10T03:57:19.976Z,97594.97
2023-06-10T03:59:47.465Z,97595.63
2023-06-10T04:02:14.884Z,97598.63
2023-06-10T04:04:43.724Z,97591.34
2023-06-10T04:07:11.193Z,97598.94
2023-06-10T04:09:38.527Z,97594.47
2023-06-10T04:12:11.507Z,97589.22
2023-06-10T04:14:39.182Z,97600.03
2023-06-10T04:17:10.358Z,97586.59
2023-06-10T04:19:39.137Z,97583.34
2023-06-10T04:22:08.145Z,97584.47
2023-06-10T04:24:36.571Z,97580.09
2023-06-10T04:27:04.917Z,97572.41
2023-06-10T04:29:36.035Z,97570.78
2023-06-10T04:32:03.967Z,97575.13
2023-06-10T04:34:37.250Z,97563.75
2023-06-10T04:37:06.706Z,97568.44
2023-06-10T04:39:39.084Z,97576.31
2023-06-10T04:42:09.461Z,97567.63
2023-06-10T04:44:37.608Z,97561.63
2023-06-10T04:47:05.759Z,97556.47
2023-06-10T04:49:34.285Z,97557.31
2023-06-10T04:52:05.752Z,97554.94
2023-06-10T04:54:37.459Z,97552.13
2023-06-10T04:57:05.418Z,97544.94
2023-06-10T04:59:33.404Z,97537.69
2023-06-10T05:02:00.859Z,97538.06
2023-06-10T05:04:29.003Z,97530.91
2023-06-10T05:06:56.675Z,97530.47
2023-06-10T05:09:24.668Z,97538.47
2023-06-10T05:11:54.597Z,97526.13
2023-06-10T05:14:25.430Z,97517.72
2023-06-10T05:16:54.057Z,97515.38
2023-06-10T05:19:22.359Z,97511.72
2023-06-10T05:21:49.777Z,97514.88
2023-06-10T05:24:17.835Z,97514.06
2023-06-10T05:26:45.472Z,97506.19
2023-06-10T05:29:13.327Z,97500.50
2023-06-10T05:31:40.698Z,97501.13
2023-06-10T05:34:08.977Z,97508.69
2023-06-10T05:36:38.769Z,97512.97
2023-06-10T05:39:06.258Z,97519.81
2023-06-10T05:41:39.137Z,97512.16
2023-06-10T05:44:06.905Z,97514.16
2023-06-10T05:46:39.306Z,97517.88
2023-06-10T05:49:08.001Z,97505.00
2023-06-10T05:51:37.452Z,97504.31
2023-06-10T05:54:16.368Z,97496.16
2023-06-10T06:00:08.176Z,97504.09
2023-06-10T06:03:39.487Z,97503.72
2023-06-10T06:06:02.961Z,97508.97
2023-06-10T06:14:34.231Z,97492.06
2023-06-10T06:17:02.125Z,97486.41
2023-06-10T06:32:17.143Z,97485.75
2023-06-10T06:46:42.368Z,97456.38
2023-06-10T06:49:10.562Z,97465.50
2023-06-10T06:51:38.385Z,97449.09
2023-06-10T07:09:51.280Z,97423.13
2023-06-10T07:12:25.347Z,97419.88
2023-06-10T07:18:16.930Z,97420.81
2023-06-10T07:20:44.486Z,97416.91
2023-06-10T07:23:14.852Z,97423.00
2023-06-10T07:25:43.087Z,97417.38
2023-06-10T07:28:10.430Z,97432.53
2023-06-10T07:30:37.994Z,97426.88
2023-06-10T07:33:07.236Z,97419.69
2023-06-10T07:35:34.769Z,97441.31
2023-06-10T07:38:02.453Z,97442.19
2023-06-10T07:40:32.810Z,97440.59
2023-06-10T07:43:02.023Z,97449.19
2023-06-10T07:45:29.825Z,97454.22
2023-06-10T07:47:57.600Z,97459.66
2023-06-10T07:50:27.096Z,97459.53
2023-06-10T07:52:55.362Z,97458.19
2023-06-10T07:55:23.042Z,97452.63
2023-06-10T07:57:50.555Z,97432.06
2023-06-10T08:00:19.039Z,97431.13
2023-06-10T08:02:46.617Z,97449.31
2023-06-10T08:05:14.540Z,97447.38
2023-06-10T08:07:42.037Z,97452.09
2023-06-10T08:10:11.199Z,97449.34
2023-06-10T08:12:38.614Z,97442.72
2023-06-10T08:15:07.058Z,97450.53
2023-06-10T08:17:35.309Z,97455.63
2023-06-10T08:20:02.967Z,97449.19
2023-06-10T08:22:30.836Z,97446.66
2023-06-10T08:24:58.488Z,97446.72
2023-06-10T08:27:28.028Z,97438.53
2023-06-10T08:29:55.696Z,97438.34
2023-06-10T08:32:23.732Z,97448.00
2023-06-10T08:34:51.620Z,97445.53
2023-06-10T08:37:19.413Z,97453.81
2023-06-10T08:39:46.852Z,97450.50
2023-06-10T08:42:36.198Z,97467.84
2023-06-10T08:45:04.193Z,97456.69
2023-06-10T08:47:36.780Z,97469.03
2023-06-10T08:50:12.622Z,97471.91
2023-06-10T08:52:45.163Z,97473.44
2023-06-10T08:55:17.019Z,97470.59
2023-06-10T08:57:45.611Z,97486.94
2023-06-10T09:00:14.537Z,97482.41
2023-06-10T09:02:42.638Z,97475.56
2023-06-10T09:05:10.780Z,97472.97
2023-06-10T09:07:38.716Z,97464.31
2023-06-10T09:10:09.975Z,97477.53
2023-06-10T09:12:42.866Z,97488.22
2023-06-10T09:15:13.297Z,97470.97
2023-06-10T09:17:41.624Z,97472.41
2023-06-10T09:20:10.895Z,97470.50
2023-06-10T09:22:40.276Z,97480.53
2023-06-10T09:25:09.882Z,97506.00
2023-06-10T09:27:51.408Z,97501.72
2023-06-10T09:30:29.693Z,97510.63
2023-06-10T09:32:58.874Z,97517.25
2023-06-10T09:35:27.497Z,97519.44
2023-06-10T09:37:58.524Z,97523.22
2023-06-10T09:40:27.722Z,97528.53
2023-06-10T09:42:59.841Z,97531.81
2023-06-10T09:45:32.802Z,97524.22
2023-06-10T09:48:00.689Z,97529.97
2023-06-10T09:50:28.012Z,97537.31
2023-06-10T09:52:55.304Z,97539.31
2023-06-10T09:55:22.993Z,97538.09
2023-06-10T09:57:51.191Z,97543.84
2023-06-10T10:00:19.805Z,97545.88
2023-06-10T10:02:49.381Z,97572.81
2023-06-10T10:05:18.072Z,97564.75
2023-06-10T10:07:45.901Z,97587.81
2023-06-10T10:10:14.474Z,97586.78
2023-06-10T10:12:42.711Z,97580.72
2023-06-10T10:15:11.561Z,97578.91
2023-06-10T10:17:46.516Z,97599.75
2023-06-10T10:20:15.892Z,97600.44
2023-06-10T10:22:44.514Z,97593.09
2023-06-10T10:25:19.128Z,97588.50
2023-06-10T10:27:52.287Z,97587.13
2023-06-10T10:30:21.556Z,97593.94
2023-06-10T10:33:02.479Z,97583.25
2023-06-10T10:35:30.056Z,97587.59
2023-06-10T10:37:57.392Z,97612.41
2023-06-10T10:40:25.543Z,97621.75
2023-06-10T10:42:53.046Z,97633.19
2023-06-10T10:45:21.834Z,97635.34
2023-06-10T10:47:54.546Z,97650.34
2023-06-10T10:50:22.286Z,97658.38
2023-06-10T10:52:53.901Z,97678.13
2023-06-10T10:55:22.109Z,97655.44
2023-06-10T10:57:58.903Z,97665.69
2023-06-10T11:00:31.205Z,97659.56
2023-06-10T11:03:11.024Z,97675.44
2023-06-10T11:05:42.346Z,97686.13
2023-06-10T11:08:10.705Z,97690.63
2023-06-10T11:10:42.527Z,97695.88
2023-06-10T11:13:14.071Z,97692.34
2023-06-10T11:15:47.397Z,97702.56
2023-06-10T11:18:16.927Z,97716.81
2023-06-10T11:20:55.696Z,97710.72
2023-06-10T11:23:34.867Z,97714.47
2023-06-10T11:26:18.083Z,97718.25
2023-06-10T11:28:48.833Z,97717.84
2023-06-10T11:31:26.195Z,97722.75
2023-06-10T11:33:57.742Z,97728.94
2023-06-10T11:36:25.624Z,97736.09
2023-06-10T11:38:56.578Z,97739.19
2023-06-10T11:41:28.266Z,97749.88
2023-06-10T11:44:00.861Z,97771.75
2023-06-10T11:46:28.805Z,97766.72
2023-06-10T11:48:57.445Z,97771.56
2023-06-10T11:51:29.718Z,97782.56
2023-06-10T11:53:57.593Z,97779.31
2023-06-10T11:56:27.507Z,97785.66
2023-06-10T11:58:56.522Z,97792.63
2023-06-10T12:01:28.991Z,97787.28
2023-06-10T12:04:01.134Z,97805.88
2023-06-10T12:06:28.785Z,97792.44
2023-06-10T12:09:04.563Z,97793.56
2023-06-10T12:11:32.137Z,97800.34
2023-06-10T12:13:59.746Z,97790.13
2023-06-10T12:16:27.913Z,97804.06
2023-06-10T12:19:02.234Z,97815.56
2023-06-10T12:21:30.303Z,97822.97
2023-06-10T12:24:02.173Z,97822.91
2023-06-10T12:26:40.156Z,97817.06
2023-06-10T12:29:21.615Z,97817.47
2023-06-10T12:31:56.158Z,97823.25
2023-06-10T12:34:50.060Z,97806.75
2023-06-10T12:37:17.781Z,97806.16
2023-06-10T12:39:52.802Z,97808.41
2023-06-10T12:42:23.178Z,97817.94
2023-06-10T12:44:54.309Z,97820.88
2023-06-10T12:47:22.830Z,97824.28
2023-06-10T12:49:52.019Z,97831.94
2023-06-10T12:52:19.321Z,97809.41
2023-06-10T12:54:46.665Z,97799.06
2023-06-10T12:57:14.174Z,97803.75
2023-06-10T12:59:43.628Z,97816.03
2023-06-10T13:02:11.707Z,97802.78
2023-06-10T13:04:40.571Z,97789.50
2023-06-10T13:07:08.616Z,97811.34
2023-06-10T13:10:05.549Z,97813.97
2023-06-10T13:12:46.074Z,97814.94
2023-06-10T13:15:18.270Z,97820.91
2023-06-10T13:17:50.378Z,97831.13
2023-06-10T13:20:18.812Z,97824.16
2023-06-10T13:22:46.083Z,97844.09
2023-06-10T13:25:14.238Z,97842.78
2023-06-10T13:27:43.399Z,97863.72
2023-06-10T13:30:12.395Z,97861.94
2023-06-10T13:32:40.135Z,97859.81
2023-06-10T13:35:09.111Z,97869.53
2023-06-10T13:37:38.031Z,97871.94
2023-06-10T13:40:06.244Z,97887.34
2023-06-10T13:42:33.710Z,97887.84
2023-06-10T13:45:01.322Z,97908.56
2023-06-10T13:47:29.157Z,97905.16
2023-06-10T13:49:56.597Z,97906.28
2023-06-10T13:52:24.337Z,97904.19
2023-06-10T13:54:52.035Z,97915.22
2023-06-10T13:57:19.549Z,97925.41
2023-06-10T13:59:47.317Z,97930.59
2023-06-10T14:02:14.933Z,97915.84
2023-06-10T14:04:42.538Z,97928.50
2023-06-10T14:07:11.126Z,97929.25
2023-06-10T14:09:38.882Z,97926.47
2023-06-10T14:12:07.088Z,97930.34
2023-06-10T14:14:34.946Z,97927.75
2023-06-10T14:17:04.608Z,97927.88
2023-06-10T14:19:32.458Z,97935.94
2023-06-10T14:22:00.505Z,97944.84
2023-06-10T14:24:28.217Z,97958.91
2023-06-10T14:26:56.268Z,97964.91
2023-06-10T14:29:24.061Z,97969.75
2023-06-10T14:31:52.182Z,97973.84
2023-06-10T14:34:20.497Z,97983.50
2023-06-10T14:36:48.281Z,97978.00
2023-06-10T14:39:16.603Z,97963.97
2023-06-10T14:41:44.245Z,97971.59
2023-06-10T14:44:12.215Z,97945.84
2023-06-10T14:46:40.038Z,97964.56
2023-06-10T14:49:07.743Z,97985.53
2023-06-10T14:51:37.026Z,97984.59
2023-06-10T14:54:04.627Z,97978.53
2023-06-10T14:56:32.333Z,97993.47
2023-06-10T14:59:00.187Z,98003.16
2023-06-10T15:01:27.700Z,98032.44
2023-06-10T15:03:55.408Z,98034.00
2023-06-10T15:06:24.027Z,98050.28
2023-06-10T15:08:52.733Z,98058.94
2023-06-10T15:11:21.105Z,98062.63
2023-06-10T15:13:48.822Z,98060.78
2023-06-10T15:16:17.167Z,98051.72
2023-06-10T15:18:45.109Z,98049.91
2023-06-10T15:21:13.354Z,98050.22
2023-06-10T15:23:40.898Z,98052.03
2023-06-10T15:26:08.533Z,98037.94
2023-06-10T15:28:36.781Z,98039.13
2023-06-10T15:31:04.279Z,98019.25
2023-06-10T15:33:31.719Z,98019.34
2023-06-10T15:35:59.481Z,98005.75
2023-06-10T15:38:27.079Z,98006.88
2023-06-10T15:40:55.226Z,98026.56
2023-06-10T15:43:22.991Z,98006.06
2023-06-10T15:45:50.706Z,98003.72
2023-06-10T15:48:18.369Z,98023.72
2023-06-10T15:50:46.089Z,98016.22
2023-06-10T15:53:13.475Z,98009.38
2023-06-10T15:55:41.362Z,97993.97
2023-06-10T15:58:08.878Z,98017.13
2023-06-10T16:00:36.638Z,98025.47
2023-06-10T16:03:04.556Z,98029.63
2023-06-10T16:05:32.007Z,98025.25
2023-06-10T16:08:02.036Z,98017.53
2023-06-10T16:10:30.893Z,98010.94
2023-06-10T16:12:58.609Z,98021.66
2023-06-10T16:15:26.181Z,98034.47
2023-06-10T16:17:53.951Z,98023.91
2023-06-10T16:20:21.438Z,98017.03
2023-06-10T16:22:49.004Z,98033.56
2023-06-10T16:25:16.901Z,98041.78
2023-06-10T16:27:44.095Z,98037.53
2023-06-10T16:30:14.303Z,98040.66
2023-06-10T16:32:41.923Z,98034.44
2023-06-10T16:35:10.291Z,98050.78
2023-06-10T16:37:37.894Z,98042.16
2023-06-10T16:40:05.797Z,98055.03
2023-06-10T16:42:33.876Z,98050.16
2023-06-10T16:45:01.993Z,98067.03
2023-06-10T16:47:29.622Z,98045.09
2023-06-10T16:49:57.349Z,98054.38
2023-06-10T16:52:25.110Z,98052.19
2023-06-10T16:54:52.894Z,98040.72
2023-06-10T16:57:21.064Z,98044.59
2023-06-10T16:59:48.417Z,98034.84
2023-06-10T17:02:15.707Z,98034.34
2023-06-10T17:04:43.198Z,98036.25
2023-06-10T17:07:10.818Z,98037.97
2023-06-10T17:09:38.693Z,98035.72
2023-06-10T17:12:06.634Z,98030.97
2023-06-10T17:14:34.450Z,98022.31
2023-06-10T17:17:01.925Z,98020.03
2023-06-10T17:19:30.339Z,98020.41
2023-06-10T17:21:58.823Z,98017.28
2023-06-10T17:24:28.021Z,98022.03
2023-06-10T17:26:55.783Z,98029.88
2023-06-10T17:29:23.240Z,98057.00
2023-06-10T17:31:50.696Z,98065.66
2023-06-10T17:34:19.574Z,98066.97
2023-06-10T17:36:46.945Z,98064.97
2023-06-10T17:39:14.411Z,98071.38
2023-06-10T17:41:42.182Z,98063.88
2023-06-10T17:44:09.950Z,98064.06
2023-06-10T17:46:37.649Z,98055.59
2023-06-10T17:49:05.046Z,98050.94
2023-06-10T17:51:32.437Z,98037.00
2023-06-10T17:53:59.689Z,98033.75
2023-06-10T17:56:27.351Z,98037.13
2023-06-10T17:58:54.728Z,98041.00
2023-06-10T18:01:22.128Z,98039.75
2023-06-10T18:03:49.764Z,98042.81
2023-06-10T18:06:17.506Z,98043.94
2023-06-10T18:08:45.013Z,98054.72
2023-06-10T18:11:12.551Z,98059.16
2023-06-10T18:13:40.148Z,98057.44
2023-06-10T18:16:07.413Z,98064.94
2023-06-10T18:18:35.404Z,98078.19
2023-06-10T18:21:03.347Z,98074.75
2023-06-10T18:23:30.761Z,98079.38
2023-06-10T18:25:58.343Z,98063.59
2023-06-10T18:28:30.645Z,98062.34
2023-06-10T18:30:58.573Z,98065.56
2023-06-10T18:33:28.583Z,98074.44
2023-06-10T18:35:57.147Z,98074.97
2023-06-10T18:38:25.096Z,98075.66
2023-06-10T18:41:06.231Z,98097.31
2023-06-10T18:43:34.456Z,98090.53
2023-06-10T18:46:03.668Z,98092.78
2023-06-10T18:48:36.653Z,98108.09
2023-06-10T18:51:04.500Z,98114.38
2023-06-10T18:53:32.477Z,98110.06
2023-06-10T18:56:08.614Z,98102.53
2023-06-10T18:58:37.522Z,98104.47
2023-06-10T19:01:07.986Z,98113.22
2023-06-10T19:03:36.703Z,98106.44
2023-06-10T19:06:04.953Z,98102.16
2023-06-10T19:08:33.922Z,98110.59
2023-06-10T19:13:50.483Z,98126.72
2023-06-10T19:16:23.475Z,98117.72
2023-06-10T19:18:58.812Z,98125.34
2023-06-10T19:21:26.422Z,98114.16
2023-06-10T19:23:53.718Z,98111.19
2023-06-10T19:26:21.877Z,98124.25
2023-06-10T19:28:49.723Z,98110.38
2023-06-10T19:31:17.937Z,98124.00
2023-06-10T19:33:45.505Z,98116.13
2023-06-10T19:36:13.502Z,98130.56
2023-06-10T19:38:41.771Z,98137.09
2023-06-10T19:41:09.278Z,98137.34
2023-06-10T19:43:38.054Z,98139.00
2023-06-10T19:46:05.506Z,98140.06
2023-06-10T19:48:32.785Z,98121.03
2023-06-10T19:51:00.291Z,98129.44
2023-06-10T19:53:27.963Z,98148.22
2023-06-10T19:55:55.293Z,98149.06
2023-06-10T19:58:27.708Z,98145.53
2023-06-10T20:00:57.435Z,98161.06
2023-06-10T20:03:26.840Z,98150.41
2023-06-10T20:05:55.846Z,98171.63
2023-06-10T20:08:23.464Z,98165.66
2023-06-10T20:10:51.694Z,98158.56
2023-06-10T20:13:20.434Z,98170.81
2023-06-10T20:15:48.188Z,98166.13
2023-06-10T20:18:15.915Z,98167.78
2023-06-10T20:20:43.549Z,98160.13
2023-06-10T20:23:10.782Z,98177.56
2023-06-10T20:25:40.040Z,98153.03
2023-06-10T20:28:18.165Z,98151.94
2023-06-10T20:30:46.080Z,98179.66
2023-06-10T20:33:13.729Z,98149.41
2023-06-10T20:35:44.619Z,98153.78
2023-06-10T20:38:12.316Z,98159.22
2023-06-10T20:40:41.628Z,98152.69
2023-06-10T20:43:09.385Z,98168.72
2023-06-10T20:45:38.596Z,98161.41
2023-06-10T20:48:07.124Z,98174.75
2023-06-10T20:50:35.576Z,98181.84
2023-06-10T20:53:04.048Z,98165.53
2023-06-10T20:55:31.800Z,98171.50
2023-06-10T20:57:59.284Z,98175.88
2023-06-10T21:00:27.069Z,98175.31
2023-06-10T21:02:55.242Z,98189.22
2023-06-10T21:05:23.104Z,98191.13
2023-06-10T21:07:51.299Z,98178.09
2023-06-10T21:10:22.822Z,98183.28
2023-06-10T21:12:50.713Z,98182.44
2023-06-10T21:15:18.754Z,98183.00
2023-06-10T21:17:46.344Z,98181.41
2023-06-10T21:20:16.182Z,98180.53
2023-06-10T21:22:45.905Z,98184.34
2023-06-10T21:25:15.721Z,98190.06
2023-06-10T21:27:45.900Z,98184.34
2023-06-10T21:30:13.637Z,98183.84
2023-06-10T21:32:41.573Z,98183.34
2023-06-10T21:35:10.083Z,98181.97
2023-06-10T21:37:41.025Z,98201.00
2023-06-10T21:40:10.801Z,98203.16
2023-06-10T21:42:38.770Z,98203.47
2023-06-10T21:45:06.813Z,98208.34
2023-06-10T21:47:34.616Z,98212.19
2023-06-10T21:50:02.199Z,98212.72
2023-06-10T21:52:33.864Z,98231.19
2023-06-10T21:55:03.109Z,98236.94
2023-06-10T21:57:31.764Z,98238.53
2023-06-10T21:59:59.599Z,98232.53
2023-06-10T22:02:28.552Z,98219.72
2023-06-10T22:04:56.344Z,98226.22
2023-06-10T22:07:26.752Z,98236.06
2023-06-10T22:09:54.552Z,98215.06
2023-06-10T22:12:22.988Z,98202.78
2023-06-10T22:14:50.690Z,98209.78
2023-06-10T22:17:18.388Z,98231.22
2023-06-10T22:19:46.538Z,98223.84
2023-06-10T22:22:14.519Z,98237.09
2023-06-10T22:24:42.365Z,98247.31
2023-06-10T22:27:10.089Z,98246.13
2023-06-10T22:29:38.035Z,98264.34
2023-06-10T22:32:06.099Z,98249.28
2023-06-10T22:34:33.689Z,98261.84
2023-06-10T22:37:02.100Z,98254.72
2023-06-10T22:39:29.580Z,98270.75
2023-06-10T22:41:57.319Z,98275.16
2023-06-10T22:44:25.299Z,98296.75
2023-06-10T22:46:53.416Z,98294.88
2023-06-10T22:49:20.935Z,98299.53
2023-06-10T22:51:49.870Z,98294.72
2023-06-10T22:54:18.423Z,98302.66
2023-06-10T22:56:46.142Z,98322.59
2023-06-10T22:59:13.599Z,98303.53
2023-06-10T23:01:41.284Z,98312.81
2023-06-10T23:04:09.290Z,98310.34
2023-06-10T23:06:37.354Z,98302.72
2023-06-10T23:09:04.940Z,98295.66
2023-06-10T23:11:32.959Z,98296.09
2023-06-10T23:14:00.866Z,98310.75
2023-06-10T23:16:29.593Z,98300.31
2023-06-10T23:18:57.636Z,98320.25
2023-06-10T23:21:29.826Z,98328.66
2023-06-10T23:24:01.847Z,98330.78
2023-06-10T23:26:30.296Z,98329.59
2023-06-10T23:28:59.987Z,98350.25
